sensor_id;sensor_type;location;lat;lon;timestamp;P1;durP1;ratioP1;P2;durP2;ratioP2
3549;SDS011;45572;48.804;8.330;2022-08-07T00:00:34;2.90;;;1.30;;
3549;SDS011;45572;48.804;8.330;2022-08-07T00:03:05;2.58;;;1.25;;
3549;SDS011;45572;48.804;8.330;2022-08-07T00:05:35;2.05;;;1.80;;
3549;SDS011;45572;48.804;8.330;2022-08-07T00:08:04;1.95;;;1.30;;
3549;SDS011;45572;48.804;8.330;2022-08-07T00:10:33;2.63;;;1.20;;
3549;SDS011;45572;48.804;8.330;2022-08-07T00:13:13;2.80;;;1.30;;
3549;SDS011;45572;48.804;8.330;2022-08-07T00:15:51;3.65;;;1.40;;
3549;SDS011;45572;48.804;8.330;2022-08-07T00:18:20;4.13;;;1.60;;
3549;SDS011;45572;48.804;8.330;2022-08-07T00:20:52;3.08;;;2.00;;
3549;SDS011;45572;48.804;8.330;2022-08-07T00:23:23;1.65;;;1.33;;
3549;SDS011;45572;48.804;8.330;2022-08-07T00:25:55;2.25;;;1.50;;
3549;SDS011;45572;48.804;8.330;2022-08-07T00:28:28;1.70;;;1.35;;
3549;SDS011;45572;48.804;8.330;2022-08-07T00:31:00;2.22;;;1.50;;
3549;SDS011;45572;48.804;8.330;2022-08-07T00:33:31;1.95;;;1.40;;
3549;SDS011;45572;48.804;8.330;2022-08-07T00:36:01;4.70;;;2.08;;
3549;SDS011;45572;48.804;8.330;2022-08-07T00:38:30;1.98;;;1.40;;
3549;SDS011;45572;48.804;8.330;2022-08-07T00:40:59;2.65;;;1.35;;
3549;SDS011;45572;48.804;8.330;2022-08-07T00:43:27;2.75;;;1.90;;
3549;SDS011;45572;48.804;8.330;2022-08-07T00:46:15;3.80;;;1.38;;
3549;SDS011;45572;48.804;8.330;2022-08-07T00:48:47;2.17;;;1.50;;
3549;SDS011;45572;48.804;8.330;2022-08-07T00:51:18;3.67;;;1.55;;
3549;SDS011;45572;48.804;8.330;2022-08-07T00:53:53;1.90;;;1.50;;
3549;SDS011;45572;48.804;8.330;2022-08-07T00:56:23;1.58;;;1.33;;
3549;SDS011;45572;48.804;8.330;2022-08-07T00:58:56;2.13;;;1.63;;
3549;SDS011;45572;48.804;8.330;2022-08-07T01:01:24;1.60;;;1.42;;
3549;SDS011;45572;48.804;8.330;2022-08-07T01:03:52;2.60;;;1.25;;
3549;SDS011;45572;48.804;8.330;2022-08-07T01:06:27;2.78;;;1.50;;
3549;SDS011;45572;48.804;8.330;2022-08-07T01:08:56;2.70;;;1.90;;
3549;SDS011;45572;48.804;8.330;2022-08-07T01:11:26;2.65;;;1.88;;
3549;SDS011;45572;48.804;8.330;2022-08-07T01:14:15;3.03;;;1.73;;
3549;SDS011;45572;48.804;8.330;2022-08-07T01:16:47;1.63;;;1.30;;
3549;SDS011;45572;48.804;8.330;2022-08-07T01:19:18;2.03;;;1.50;;
3549;SDS011;45572;48.804;8.330;2022-08-07T01:21:52;2.13;;;1.65;;
3549;SDS011;45572;48.804;8.330;2022-08-07T01:24:25;5.10;;;2.85;;
3549;SDS011;45572;48.804;8.330;2022-08-07T01:26:57;1.77;;;1.67;;
3549;SDS011;45572;48.804;8.330;2022-08-07T01:29:27;3.55;;;1.80;;
3549;SDS011;45572;48.804;8.330;2022-08-07T01:31:59;4.22;;;2.00;;
3549;SDS011;45572;48.804;8.330;2022-08-07T01:34:39;2.35;;;1.88;;
3549;SDS011;45572;48.804;8.330;2022-08-07T01:37:14;1.75;;;1.30;;
3549;SDS011;45572;48.804;8.330;2022-08-07T01:39:46;3.58;;;1.70;;
3549;SDS011;45572;48.804;8.330;2022-08-07T01:42:27;2.45;;;1.85;;
3549;SDS011;45572;48.804;8.330;2022-08-07T01:45:07;7.25;;;1.70;;
3549;SDS011;45572;48.804;8.330;2022-08-07T01:47:52;2.33;;;1.42;;
3549;SDS011;45572;48.804;8.330;2022-08-07T01:50:41;3.00;;;1.67;;
3549;SDS011;45572;48.804;8.330;2022-08-07T01:53:16;2.53;;;1.70;;
3549;SDS011;45572;48.804;8.330;2022-08-07T01:56:08;2.20;;;1.50;;
3549;SDS011;45572;48.804;8.330;2022-08-07T01:58:41;2.80;;;1.75;;
3549;SDS011;45572;48.804;8.330;2022-08-07T02:01:17;1.85;;;1.33;;
3549;SDS011;45572;48.804;8.330;2022-08-07T02:04:08;2.88;;;1.73;;
3549;SDS011;45572;48.804;8.330;2022-08-07T02:06:45;4.80;;;1.52;;
3549;SDS011;45572;48.804;8.330;2022-08-07T02:09:16;2.10;;;1.35;;
3549;SDS011;45572;48.804;8.330;2022-08-07T02:12:07;5.13;;;3.17;;
3549;SDS011;45572;48.804;8.330;2022-08-07T02:14:49;4.28;;;1.67;;
3549;SDS011;45572;48.804;8.330;2022-08-07T02:17:29;1.73;;;1.30;;
3549;SDS011;45572;48.804;8.330;2022-08-07T02:20:00;1.77;;;1.25;;
3549;SDS011;45572;48.804;8.330;2022-08-07T02:22:48;3.42;;;1.88;;
3549;SDS011;45572;48.804;8.330;2022-08-07T02:25:21;1.48;;;1.38;;
3549;SDS011;45572;48.804;8.330;2022-08-07T02:28:13;2.45;;;1.73;;
3549;SDS011;45572;48.804;8.330;2022-08-07T02:31:00;2.42;;;1.65;;
3549;SDS011;45572;48.804;8.330;2022-08-07T02:33:49;2.25;;;1.70;;
3549;SDS011;45572;48.804;8.330;2022-08-07T02:36:30;3.92;;;1.80;;
3549;SDS011;45572;48.804;8.330;2022-08-07T02:39:07;7.47;;;1.73;;
3549;SDS011;45572;48.804;8.330;2022-08-07T02:41:58;2.58;;;1.23;;
3549;SDS011;45572;48.804;8.330;2022-08-07T02:44:28;2.55;;;1.80;;
3549;SDS011;45572;48.804;8.330;2022-08-07T02:47:02;3.17;;;1.90;;
3549;SDS011;45572;48.804;8.330;2022-08-07T02:49:32;2.33;;;1.40;;
3549;SDS011;45572;48.804;8.330;2022-08-07T02:52:23;2.03;;;1.55;;
3549;SDS011;45572;48.804;8.330;2022-08-07T02:54:59;3.35;;;1.85;;
3549;SDS011;45572;48.804;8.330;2022-08-07T02:57:52;5.22;;;1.80;;
3549;SDS011;45572;48.804;8.330;2022-08-07T03:00:25;2.40;;;2.13;;
3549;SDS011;45572;48.804;8.330;2022-08-07T03:02:56;2.60;;;1.40;;
3549;SDS011;45572;48.804;8.330;2022-08-07T03:05:34;2.55;;;1.58;;
3549;SDS011;45572;48.804;8.330;2022-08-07T03:08:04;3.35;;;1.55;;
3549;SDS011;45572;48.804;8.330;2022-08-07T03:10:40;3.10;;;1.65;;
3549;SDS011;45572;48.804;8.330;2022-08-07T03:13:17;2.75;;;1.35;;
3549;SDS011;45572;48.804;8.330;2022-08-07T03:15:47;3.60;;;1.88;;
3549;SDS011;45572;48.804;8.330;2022-08-07T03:18:26;2.58;;;1.52;;
3549;SDS011;45572;48.804;8.330;2022-08-07T03:21:01;4.20;;;1.58;;
3549;SDS011;45572;48.804;8.330;2022-08-07T03:23:35;2.50;;;1.65;;
3549;SDS011;45572;48.804;8.330;2022-08-07T03:26:27;4.20;;;1.60;;
3549;SDS011;45572;48.804;8.330;2022-08-07T03:29:01;2.35;;;1.75;;
3549;SDS011;45572;48.804;8.330;2022-08-07T03:31:37;2.47;;;1.85;;
3549;SDS011;45572;48.804;8.330;2022-08-07T03:34:13;3.22;;;1.70;;
3549;SDS011;45572;48.804;8.330;2022-08-07T03:36:50;3.40;;;1.70;;
3549;SDS011;45572;48.804;8.330;2022-08-07T03:39:22;2.25;;;1.70;;
3549;SDS011;45572;48.804;8.330;2022-08-07T03:42:12;6.30;;;1.95;;
3549;SDS011;45572;48.804;8.330;2022-08-07T03:44:43;5.45;;;2.00;;
3549;SDS011;45572;48.804;8.330;2022-08-07T03:47:18;3.83;;;1.63;;
3549;SDS011;45572;48.804;8.330;2022-08-07T03:49:48;2.95;;;1.98;;
3549;SDS011;45572;48.804;8.330;2022-08-07T03:52:21;1.40;;;1.23;;
3549;SDS011;45572;48.804;8.330;2022-08-07T03:54:56;1.85;;;1.35;;
3549;SDS011;45572;48.804;8.330;2022-08-07T03:57:34;2.55;;;1.33;;
3549;SDS011;45572;48.804;8.330;2022-08-07T04:00:28;2.03;;;1.70;;
3549;SDS011;45572;48.804;8.330;2022-08-07T04:03:01;2.50;;;1.15;;
3549;SDS011;45572;48.804;8.330;2022-08-07T04:05:36;4.05;;;2.50;;
3549;SDS011;45572;48.804;8.330;2022-08-07T04:08:13;2.38;;;1.38;;
3549;SDS011;45572;48.804;8.330;2022-08-07T04:10:46;1.83;;;1.50;;
3549;SDS011;45572;48.804;8.330;2022-08-07T04:13:36;2.03;;;1.70;;
3549;SDS011;45572;48.804;8.330;2022-08-07T04:16:26;2.42;;;1.58;;
3549;SDS011;45572;48.804;8.330;2022-08-07T04:18:59;1.80;;;1.50;;
3549;SDS011;45572;48.804;8.330;2022-08-07T04:21:46;4.10;;;1.75;;
3549;SDS011;45572;48.804;8.330;2022-08-07T04:24:37;2.97;;;2.00;;
3549;SDS011;45572;48.804;8.330;2022-08-07T04:27:10;4.50;;;1.50;;
3549;SDS011;45572;48.804;8.330;2022-08-07T04:29:47;1.98;;;1.42;;
3549;SDS011;45572;48.804;8.330;2022-08-07T04:32:39;3.38;;;1.67;;
3549;SDS011;45572;48.804;8.330;2022-08-07T04:35:13;3.45;;;1.75;;
3549;SDS011;45572;48.804;8.330;2022-08-07T04:37:42;5.38;;;1.77;;
3549;SDS011;45572;48.804;8.330;2022-08-07T04:40:31;3.90;;;1.90;;
3549;SDS011;45572;48.804;8.330;2022-08-07T04:42:59;2.28;;;1.40;;
3549;SDS011;45572;48.804;8.330;2022-08-07T04:45:36;2.72;;;1.80;;
3549;SDS011;45572;48.804;8.330;2022-08-07T04:48:29;3.38;;;1.80;;
3549;SDS011;45572;48.804;8.330;2022-08-07T04:51:17;5.25;;;1.80;;
3549;SDS011;45572;48.804;8.330;2022-08-07T04:53:57;3.72;;;1.50;;
3549;SDS011;45572;48.804;8.330;2022-08-07T04:56:36;1.65;;;1.15;;
3549;SDS011;45572;48.804;8.330;2022-08-07T04:59:30;3.55;;;1.50;;
3549;SDS011;45572;48.804;8.330;2022-08-07T05:02:23;3.30;;;1.60;;
3549;SDS011;45572;48.804;8.330;2022-08-07T05:04:57;1.45;;;1.10;;
3549;SDS011;45572;48.804;8.330;2022-08-07T05:07:52;1.52;;;1.35;;
3549;SDS011;45572;48.804;8.330;2022-08-07T05:10:27;3.47;;;1.85;;
3549;SDS011;45572;48.804;8.330;2022-08-07T05:13:02;2.53;;;1.38;;
3549;SDS011;45572;48.804;8.330;2022-08-07T05:15:54;4.30;;;2.00;;
3549;SDS011;45572;48.804;8.330;2022-08-07T05:18:31;2.10;;;1.30;;
3549;SDS011;45572;48.804;8.330;2022-08-07T05:21:04;1.80;;;1.35;;
3549;SDS011;45572;48.804;8.330;2022-08-07T05:23:37;2.10;;;1.60;;
3549;SDS011;45572;48.804;8.330;2022-08-07T05:26:11;2.47;;;1.40;;
3549;SDS011;45572;48.804;8.330;2022-08-07T05:28:56;3.47;;;1.85;;
3549;SDS011;45572;48.804;8.330;2022-08-07T05:31:32;4.53;;;1.30;;
3549;SDS011;45572;48.804;8.330;2022-08-07T05:34:08;1.58;;;1.48;;
3549;SDS011;45572;48.804;8.330;2022-08-07T05:36:43;3.30;;;1.40;;
3549;SDS011;45572;48.804;8.330;2022-08-07T05:39:24;1.88;;;1.48;;
3549;SDS011;45572;48.804;8.330;2022-08-07T05:42:14;3.65;;;1.25;;
3549;SDS011;45572;48.804;8.330;2022-08-07T05:44:59;4.97;;;1.38;;
3549;SDS011;45572;48.804;8.330;2022-08-07T05:47:49;2.45;;;1.70;;
3549;SDS011;45572;48.804;8.330;2022-08-07T05:50:29;4.40;;;1.40;;
3549;SDS011;45572;48.804;8.330;2022-08-07T05:53:00;3.90;;;1.80;;
3549;SDS011;45572;48.804;8.330;2022-08-07T05:55:31;1.77;;;1.13;;
3549;SDS011;45572;48.804;8.330;2022-08-07T05:58:22;2.72;;;1.00;;
3549;SDS011;45572;48.804;8.330;2022-08-07T06:01:02;2.25;;;1.85;;
3549;SDS011;45572;48.804;8.330;2022-08-07T06:03:37;2.63;;;1.55;;
3549;SDS011;45572;48.804;8.330;2022-08-07T06:06:20;2.10;;;1.30;;
3549;SDS011;45572;48.804;8.330;2022-08-07T06:08:56;4.80;;;1.25;;
3549;SDS011;45572;48.804;8.330;2022-08-07T06:11:25;2.00;;;1.70;;
3549;SDS011;45572;48.804;8.330;2022-08-07T06:13:54;2.63;;;1.20;;
3549;SDS011;45572;48.804;8.330;2022-08-07T06:16:44;3.57;;;1.20;;
3549;SDS011;45572;48.804;8.330;2022-08-07T06:19:22;1.27;;;1.10;;
3549;SDS011;45572;48.804;8.330;2022-08-07T06:22:13;1.97;;;1.00;;
3549;SDS011;45572;48.804;8.330;2022-08-07T06:25:02;2.37;;;1.03;;
3549;SDS011;45572;48.804;8.330;2022-08-07T06:27:35;1.97;;;1.30;;
3549;SDS011;45572;48.804;8.330;2022-08-07T06:30:23;1.90;;;1.00;;
3549;SDS011;45572;48.804;8.330;2022-08-07T06:33:07;3.30;;;1.00;;
3549;SDS011;45572;48.804;8.330;2022-08-07T06:35:44;1.70;;;0.70;;
3549;SDS011;45572;48.804;8.330;2022-08-07T06:38:33;1.27;;;0.73;;
3549;SDS011;45572;48.804;8.330;2022-08-07T06:41:06;4.63;;;0.70;;
3549;SDS011;45572;48.804;8.330;2022-08-07T06:43:41;2.03;;;0.60;;
3549;SDS011;45572;48.804;8.330;2022-08-07T06:46:32;1.60;;;0.60;;
3549;SDS011;45572;48.804;8.330;2022-08-07T06:49:02;1.33;;;0.60;;
3549;SDS011;45572;48.804;8.330;2022-08-07T06:51:35;1.93;;;0.90;;
3549;SDS011;45572;48.804;8.330;2022-08-07T06:54:17;1.73;;;0.70;;
3549;SDS011;45572;48.804;8.330;2022-08-07T06:57:08;2.43;;;0.73;;
3549;SDS011;45572;48.804;8.330;2022-08-07T06:59:40;2.20;;;0.70;;
3549;SDS011;45572;48.804;8.330;2022-08-07T07:02:30;0.97;;;0.70;;
3549;SDS011;45572;48.804;8.330;2022-08-07T07:05:19;0.83;;;0.50;;
3549;SDS011;45572;48.804;8.330;2022-08-07T07:08:07;1.33;;;0.70;;
3549;SDS011;45572;48.804;8.330;2022-08-07T07:10:50;2.90;;;0.80;;
3549;SDS011;45572;48.804;8.330;2022-08-07T07:13:27;2.43;;;0.73;;
3549;SDS011;45572;48.804;8.330;2022-08-07T07:16:19;1.23;;;0.80;;
3549;SDS011;45572;48.804;8.330;2022-08-07T07:18:57;0.90;;;0.67;;
3549;SDS011;45572;48.804;8.330;2022-08-07T07:21:49;1.10;;;0.70;;
3549;SDS011;45572;48.804;8.330;2022-08-07T07:24:39;1.03;;;0.50;;
3549;SDS011;45572;48.804;8.330;2022-08-07T07:27:29;0.93;;;0.67;;
3549;SDS011;45572;48.804;8.330;2022-08-07T07:30:23;0.80;;;0.60;;
3549;SDS011;45572;48.804;8.330;2022-08-07T07:33:05;0.93;;;0.60;;
3549;SDS011;45572;48.804;8.330;2022-08-07T07:35:37;6.10;;;0.90;;
3549;SDS011;45572;48.804;8.330;2022-08-07T07:38:27;0.83;;;0.57;;
3549;SDS011;45572;48.804;8.330;2022-08-07T07:40:59;1.30;;;0.80;;
3549;SDS011;45572;48.804;8.330;2022-08-07T07:43:33;0.87;;;0.57;;
3549;SDS011;45572;48.804;8.330;2022-08-07T07:46:25;1.90;;;0.70;;
3549;SDS011;45572;48.804;8.330;2022-08-07T07:49:17;2.70;;;0.70;;
3549;SDS011;45572;48.804;8.330;2022-08-07T07:52:06;1.37;;;0.60;;
3549;SDS011;45572;48.804;8.330;2022-08-07T07:54:35;0.90;;;0.60;;
3549;SDS011;45572;48.804;8.330;2022-08-07T07:57:09;1.63;;;0.70;;
3549;SDS011;45572;48.804;8.330;2022-08-07T07:59:41;1.67;;;0.60;;
3549;SDS011;45572;48.804;8.330;2022-08-07T08:02:20;1.13;;;0.60;;
3549;SDS011;45572;48.804;8.330;2022-08-07T08:05:01;1.80;;;0.70;;
3549;SDS011;45572;48.804;8.330;2022-08-07T08:07:41;0.90;;;0.67;;
3549;SDS011;45572;48.804;8.330;2022-08-07T08:10:26;1.17;;;0.70;;
3549;SDS011;45572;48.804;8.330;2022-08-07T08:13:04;2.60;;;0.70;;
3549;SDS011;45572;48.804;8.330;2022-08-07T08:15:42;3.00;;;1.20;;
3549;SDS011;45572;48.804;8.330;2022-08-07T08:18:25;2.70;;;0.80;;
3549;SDS011;45572;48.804;8.330;2022-08-07T08:20:57;1.53;;;0.70;;
3549;SDS011;45572;48.804;8.330;2022-08-07T08:23:29;3.67;;;0.73;;
3549;SDS011;45572;48.804;8.330;2022-08-07T08:26:12;0.90;;;0.70;;
3549;SDS011;45572;48.804;8.330;2022-08-07T08:28:57;1.93;;;0.87;;
3549;SDS011;45572;48.804;8.330;2022-08-07T08:31:29;2.17;;;0.93;;
3549;SDS011;45572;48.804;8.330;2022-08-07T08:34:30;1.90;;;1.07;;
3549;SDS011;45572;48.804;8.330;2022-08-07T08:36:59;3.03;;;0.80;;
3549;SDS011;45572;48.804;8.330;2022-08-07T08:39:35;0.80;;;0.57;;
3549;SDS011;45572;48.804;8.330;2022-08-07T08:42:22;0.97;;;0.63;;
3549;SDS011;45572;48.804;8.330;2022-08-07T08:44:56;0.90;;;0.60;;
3549;SDS011;45572;48.804;8.330;2022-08-07T08:47:31;1.67;;;0.70;;
3549;SDS011;45572;48.804;8.330;2022-08-07T08:50:21;0.77;;;0.60;;
3549;SDS011;45572;48.804;8.330;2022-08-07T08:53:06;1.93;;;0.80;;
3549;SDS011;45572;48.804;8.330;2022-08-07T08:55:45;1.00;;;0.60;;
3549;SDS011;45572;48.804;8.330;2022-08-07T08:58:26;0.70;;;0.60;;
3549;SDS011;45572;48.804;8.330;2022-08-07T09:01:03;1.83;;;0.70;;
3549;SDS011;45572;48.804;8.330;2022-08-07T09:03:49;1.70;;;0.57;;
3549;SDS011;45572;48.804;8.330;2022-08-07T09:06:28;2.83;;;1.13;;
3549;SDS011;45572;48.804;8.330;2022-08-07T09:09:06;0.80;;;0.50;;
3549;SDS011;45572;48.804;8.330;2022-08-07T09:11:49;1.27;;;0.73;;
3549;SDS011;45572;48.804;8.330;2022-08-07T09:15:03;1.30;;;0.70;;
3549;SDS011;45572;48.804;8.330;2022-08-07T09:18:05;1.00;;;0.80;;
3549;SDS011;45572;48.804;8.330;2022-08-07T09:20:56;2.13;;;0.77;;
3549;SDS011;45572;48.804;8.330;2022-08-07T09:23:45;1.40;;;0.73;;
3549;SDS011;45572;48.804;8.330;2022-08-07T09:26:43;1.17;;;0.77;;
3549;SDS011;45572;48.804;8.330;2022-08-07T09:29:23;1.40;;;0.60;;
3549;SDS011;45572;48.804;8.330;2022-08-07T09:32:20;1.50;;;0.80;;
3549;SDS011;45572;48.804;8.330;2022-08-07T09:34:57;0.80;;;0.70;;
3549;SDS011;45572;48.804;8.330;2022-08-07T09:37:57;0.83;;;0.60;;
3549;SDS011;45572;48.804;8.330;2022-08-07T09:40:41;0.77;;;0.50;;
3549;SDS011;45572;48.804;8.330;2022-08-07T09:43:32;0.80;;;0.50;;
3549;SDS011;45572;48.804;8.330;2022-08-07T09:46:34;1.03;;;0.60;;
3549;SDS011;45572;48.804;8.330;2022-08-07T09:49:32;1.47;;;0.50;;
3549;SDS011;45572;48.804;8.330;2022-08-07T09:52:34;1.37;;;0.67;;
3549;SDS011;45572;48.804;8.330;2022-08-07T09:55:08;1.03;;;0.67;;
3549;SDS011;45572;48.804;8.330;2022-08-07T09:57:52;0.67;;;0.50;;
3549;SDS011;45572;48.804;8.330;2022-08-07T10:00:42;1.70;;;0.63;;
3549;SDS011;45572;48.804;8.330;2022-08-07T10:03:28;1.70;;;0.60;;
3549;SDS011;45572;48.804;8.330;2022-08-07T10:06:30;1.40;;;0.80;;
3549;SDS011;45572;48.804;8.330;2022-08-07T10:09:28;1.30;;;0.90;;
3549;SDS011;45572;48.804;8.330;2022-08-07T10:12:32;2.67;;;0.60;;
3549;SDS011;45572;48.804;8.330;2022-08-07T10:18:19;0.70;;;0.60;;
3549;SDS011;45572;48.804;8.330;2022-08-07T10:21:01;2.10;;;0.87;;
3549;SDS011;45572;48.804;8.330;2022-08-07T10:24:03;1.00;;;0.67;;
3549;SDS011;45572;48.804;8.330;2022-08-07T10:26:50;1.10;;;0.80;;
3549;SDS011;45572;48.804;8.330;2022-08-07T10:29:33;2.00;;;0.70;;
3549;SDS011;45572;48.804;8.330;2022-08-07T10:32:26;0.90;;;0.70;;
3549;SDS011;45572;48.804;8.330;2022-08-07T10:35:21;0.80;;;0.60;;
3549;SDS011;45572;48.804;8.330;2022-08-07T10:38:17;1.20;;;0.80;;
3549;SDS011;45572;48.804;8.330;2022-08-07T10:41:14;2.43;;;1.13;;
3549;SDS011;45572;48.804;8.330;2022-08-07T10:44:11;1.20;;;0.93;;
3549;SDS011;45572;48.804;8.330;2022-08-07T10:47:06;1.67;;;0.70;;
3549;SDS011;45572;48.804;8.330;2022-08-07T10:49:55;1.43;;;0.80;;
3549;SDS011;45572;48.804;8.330;2022-08-07T10:52:32;1.93;;;0.80;;
3549;SDS011;45572;48.804;8.330;2022-08-07T10:55:10;1.30;;;0.80;;
3549;SDS011;45572;48.804;8.330;2022-08-07T10:58:08;1.13;;;0.83;;
3549;SDS011;45572;48.804;8.330;2022-08-07T11:01:00;1.07;;;0.80;;
3549;SDS011;45572;48.804;8.330;2022-08-07T11:03:41;1.30;;;0.70;;
3549;SDS011;45572;48.804;8.330;2022-08-07T11:06:43;1.90;;;1.00;;
3549;SDS011;45572;48.804;8.330;2022-08-07T11:09:17;1.40;;;0.77;;
3549;SDS011;45572;48.804;8.330;2022-08-07T11:12:10;2.43;;;0.60;;
3549;SDS011;45572;48.804;8.330;2022-08-07T11:14:59;1.03;;;0.80;;
3549;SDS011;45572;48.804;8.330;2022-08-07T11:17:44;1.27;;;0.93;;
3549;SDS011;45572;48.804;8.330;2022-08-07T11:20:20;1.67;;;0.70;;
3549;SDS011;45572;48.804;8.330;2022-08-07T11:22:54;1.10;;;0.70;;
3549;SDS011;45572;48.804;8.330;2022-08-07T11:25:33;1.93;;;0.60;;
3549;SDS011;45572;48.804;8.330;2022-08-07T11:28:16;1.20;;;0.70;;
3549;SDS011;45572;48.804;8.330;2022-08-07T11:30:57;2.70;;;0.83;;
3549;SDS011;45572;48.804;8.330;2022-08-07T11:33:42;3.30;;;0.77;;
3549;SDS011;45572;48.804;8.330;2022-08-07T11:36:31;1.00;;;0.60;;
3549;SDS011;45572;48.804;8.330;2022-08-07T11:39:12;1.80;;;0.60;;
3549;SDS011;45572;48.804;8.330;2022-08-07T11:42:09;1.00;;;0.50;;
3549;SDS011;45572;48.804;8.330;2022-08-07T11:44:46;0.93;;;0.60;;
3549;SDS011;45572;48.804;8.330;2022-08-07T11:47:28;0.73;;;0.50;;
3549;SDS011;45572;48.804;8.330;2022-08-07T11:50:26;4.17;;;0.63;;
3549;SDS011;45572;48.804;8.330;2022-08-07T11:53:23;3.37;;;0.53;;
3549;SDS011;45572;48.804;8.330;2022-08-07T11:56:09;1.53;;;0.67;;
3549;SDS011;45572;48.804;8.330;2022-08-07T12:02:10;1.30;;;0.60;;
3549;SDS011;45572;48.804;8.330;2022-08-07T12:05:01;1.30;;;0.50;;
3549;SDS011;45572;48.804;8.330;2022-08-07T12:07:56;0.73;;;0.60;;
3549;SDS011;45572;48.804;8.330;2022-08-07T12:10:30;3.03;;;0.60;;
3549;SDS011;45572;48.804;8.330;2022-08-07T12:13:10;1.33;;;0.50;;
3549;SDS011;45572;48.804;8.330;2022-08-07T12:15:46;1.27;;;0.53;;
3549;SDS011;45572;48.804;8.330;2022-08-07T12:18:35;1.10;;;0.60;;
3549;SDS011;45572;48.804;8.330;2022-08-07T12:21:14;1.10;;;0.57;;
3549;SDS011;45572;48.804;8.330;2022-08-07T12:24:13;0.90;;;0.50;;
3549;SDS011;45572;48.804;8.330;2022-08-07T12:27:06;1.37;;;0.60;;
3549;SDS011;45572;48.804;8.330;2022-08-07T12:29:47;0.60;;;0.40;;
3549;SDS011;45572;48.804;8.330;2022-08-07T12:32:20;0.83;;;0.50;;
3549;SDS011;45572;48.804;8.330;2022-08-07T12:35:00;0.87;;;0.70;;
3549;SDS011;45572;48.804;8.330;2022-08-07T12:37:33;2.60;;;1.40;;
3549;SDS011;45572;48.804;8.330;2022-08-07T12:40:25;2.77;;;0.77;;
3549;SDS011;45572;48.804;8.330;2022-08-07T12:43:17;1.43;;;0.70;;
3549;SDS011;45572;48.804;8.330;2022-08-07T12:46:14;2.93;;;0.63;;
3549;SDS011;45572;48.804;8.330;2022-08-07T12:48:59;1.00;;;0.60;;
3549;SDS011;45572;48.804;8.330;2022-08-07T12:51:53;1.33;;;0.80;;
3549;SDS011;45572;48.804;8.330;2022-08-07T12:54:42;1.40;;;0.80;;
3549;SDS011;45572;48.804;8.330;2022-08-07T12:57:24;2.67;;;0.80;;
3549;SDS011;45572;48.804;8.330;2022-08-07T13:00:16;4.00;;;1.17;;
3549;SDS011;45572;48.804;8.330;2022-08-07T13:03:04;1.63;;;0.57;;
3549;SDS011;45572;48.804;8.330;2022-08-07T13:06:02;2.83;;;0.80;;
3549;SDS011;45572;48.804;8.330;2022-08-07T13:08:50;1.67;;;0.67;;
3549;SDS011;45572;48.804;8.330;2022-08-07T13:11:30;0.70;;;0.50;;
3549;SDS011;45572;48.804;8.330;2022-08-07T13:14:28;1.53;;;0.80;;
3549;SDS011;45572;48.804;8.330;2022-08-07T13:17:16;1.10;;;0.73;;
3549;SDS011;45572;48.804;8.330;2022-08-07T13:20:11;2.80;;;0.80;;
3549;SDS011;45572;48.804;8.330;2022-08-07T13:22:54;2.60;;;0.73;;
3549;SDS011;45572;48.804;8.330;2022-08-07T13:25:35;1.53;;;0.90;;
3549;SDS011;45572;48.804;8.330;2022-08-07T13:28:17;1.10;;;0.90;;
3549;SDS011;45572;48.804;8.330;2022-08-07T13:30:51;0.83;;;0.70;;
3549;SDS011;45572;48.804;8.330;2022-08-07T13:33:32;1.10;;;0.60;;
3549;SDS011;45572;48.804;8.330;2022-08-07T13:36:27;1.43;;;1.10;;
3549;SDS011;45572;48.804;8.330;2022-08-07T13:39:06;1.13;;;0.63;;
3549;SDS011;45572;48.804;8.330;2022-08-07T13:42:01;1.10;;;0.70;;
3549;SDS011;45572;48.804;8.330;2022-08-07T13:44:32;1.00;;;0.70;;
3549;SDS011;45572;48.804;8.330;2022-08-07T13:47:04;2.40;;;0.70;;
3549;SDS011;45572;48.804;8.330;2022-08-07T13:49:41;1.10;;;0.70;;
3549;SDS011;45572;48.804;8.330;2022-08-07T13:52:32;1.33;;;0.73;;
3549;SDS011;45572;48.804;8.330;2022-08-07T13:55:09;0.80;;;0.60;;
3549;SDS011;45572;48.804;8.330;2022-08-07T13:57:57;1.27;;;0.50;;
3549;SDS011;45572;48.804;8.330;2022-08-07T14:00:57;1.30;;;0.70;;
3549;SDS011;45572;48.804;8.330;2022-08-07T14:03:35;1.07;;;0.50;;
3549;SDS011;45572;48.804;8.330;2022-08-07T14:06:29;0.70;;;0.50;;
3549;SDS011;45572;48.804;8.330;2022-08-07T14:09:00;0.80;;;0.50;;
3549;SDS011;45572;48.804;8.330;2022-08-07T14:11:30;1.10;;;0.60;;
3549;SDS011;45572;48.804;8.330;2022-08-07T14:14:28;1.53;;;0.60;;
3549;SDS011;45572;48.804;8.330;2022-08-07T14:17:00;1.17;;;0.50;;
3549;SDS011;45572;48.804;8.330;2022-08-07T14:19:51;2.30;;;0.60;;
3549;SDS011;45572;48.804;8.330;2022-08-07T14:22:42;1.30;;;0.60;;
3549;SDS011;45572;48.804;8.330;2022-08-07T14:25:23;1.07;;;0.70;;
3549;SDS011;45572;48.804;8.330;2022-08-07T14:28:06;1.40;;;0.67;;
3549;SDS011;45572;48.804;8.330;2022-08-07T14:30:39;1.07;;;0.40;;
3549;SDS011;45572;48.804;8.330;2022-08-07T14:33:17;3.27;;;0.70;;
3549;SDS011;45572;48.804;8.330;2022-08-07T14:35:52;1.43;;;0.50;;
3549;SDS011;45572;48.804;8.330;2022-08-07T14:38:24;1.27;;;0.60;;
3549;SDS011;45572;48.804;8.330;2022-08-07T14:40:59;1.13;;;0.50;;
3549;SDS011;45572;48.804;8.330;2022-08-07T14:43:32;1.93;;;0.70;;
3549;SDS011;45572;48.804;8.330;2022-08-07T14:46:20;2.30;;;0.63;;
3549;SDS011;45572;48.804;8.330;2022-08-07T14:48:57;1.17;;;0.70;;
3549;SDS011;45572;48.804;8.330;2022-08-07T14:51:49;0.90;;;0.50;;
3549;SDS011;45572;48.804;8.330;2022-08-07T14:54:42;0.83;;;0.50;;
3549;SDS011;45572;48.804;8.330;2022-08-07T14:57:12;2.37;;;0.60;;
3549;SDS011;45572;48.804;8.330;2022-08-07T14:59:45;1.20;;;0.70;;
3549;SDS011;45572;48.804;8.330;2022-08-07T15:02:30;1.20;;;0.50;;
3549;SDS011;45572;48.804;8.330;2022-08-07T15:05:04;1.43;;;0.70;;
3549;SDS011;45572;48.804;8.330;2022-08-07T15:07:49;1.93;;;0.70;;
3549;SDS011;45572;48.804;8.330;2022-08-07T15:10:21;1.10;;;0.63;;
3549;SDS011;45572;48.804;8.330;2022-08-07T15:13:14;2.30;;;0.87;;
3549;SDS011;45572;48.804;8.330;2022-08-07T15:15:55;1.60;;;0.67;;
3549;SDS011;45572;48.804;8.330;2022-08-07T15:18:29;1.10;;;0.70;;
3549;SDS011;45572;48.804;8.330;2022-08-07T15:21:22;1.77;;;0.60;;
3549;SDS011;45572;48.804;8.330;2022-08-07T15:24:13;2.40;;;0.80;;
3549;SDS011;45572;48.804;8.330;2022-08-07T15:27:05;0.90;;;0.50;;
3549;SDS011;45572;48.804;8.330;2022-08-07T15:29:36;0.97;;;0.60;;
3549;SDS011;45572;48.804;8.330;2022-08-07T15:32:26;0.73;;;0.50;;
3549;SDS011;45572;48.804;8.330;2022-08-07T15:35:17;1.83;;;0.70;;
3549;SDS011;45572;48.804;8.330;2022-08-07T15:38:07;1.60;;;0.70;;
3549;SDS011;45572;48.804;8.330;2022-08-07T15:40:55;1.03;;;0.70;;
3549;SDS011;45572;48.804;8.330;2022-08-07T15:43:55;0.93;;;0.70;;
3549;SDS011;45572;48.804;8.330;2022-08-07T15:46:28;1.13;;;0.57;;
3549;SDS011;45572;48.804;8.330;2022-08-07T15:49:17;1.63;;;0.57;;
3549;SDS011;45572;48.804;8.330;2022-08-07T15:52:11;2.00;;;0.67;;
3549;SDS011;45572;48.804;8.330;2022-08-07T15:55:00;1.70;;;0.60;;
3549;SDS011;45572;48.804;8.330;2022-08-07T15:57:34;0.80;;;0.50;;
3549;SDS011;45572;48.804;8.330;2022-08-07T16:00:14;1.20;;;0.50;;
3549;SDS011;45572;48.804;8.330;2022-08-07T16:03:01;0.67;;;0.50;;
3549;SDS011;45572;48.804;8.330;2022-08-07T16:05:31;1.47;;;0.70;;
3549;SDS011;45572;48.804;8.330;2022-08-07T16:08:02;3.13;;;0.80;;
3549;SDS011;45572;48.804;8.330;2022-08-07T16:10:56;1.10;;;0.63;;
3549;SDS011;45572;48.804;8.330;2022-08-07T16:13:37;0.83;;;0.50;;
3549;SDS011;45572;48.804;8.330;2022-08-07T16:16:30;1.87;;;0.80;;
3549;SDS011;45572;48.804;8.330;2022-08-07T16:19:23;1.77;;;0.70;;
3549;SDS011;45572;48.804;8.330;2022-08-07T16:22:10;1.07;;;0.57;;
3549;SDS011;45572;48.804;8.330;2022-08-07T16:25:26;0.90;;;0.60;;
3549;SDS011;45572;48.804;8.330;2022-08-07T16:28:26;0.70;;;0.50;;
3549;SDS011;45572;48.804;8.330;2022-08-07T16:31:26;1.27;;;0.50;;
3549;SDS011;45572;48.804;8.330;2022-08-07T16:34:25;1.70;;;0.53;;
3549;SDS011;45572;48.804;8.330;2022-08-07T16:37:07;0.97;;;0.50;;